Time;durP1;ratioP1;P1;durP2;ratioP2;P2;SDS_P1;SDS_P2;PMS_P1;PMS_P2;Temp;Humidity;BMP_temperature;BMP_pressure;BME280_temperature;BME280_humidity;BME280_pressure;Samples;Min_cycle;Max_cycle;Signal;HPM_P1;HPM_P2
2021/12/21 00:02:23;;;;;;;3.07;2.40;;;19.30;45.00;;;;;;5113062;28;20290;-19
2021/12/21 00:04:49;;;;;;;3.90;2.50;;;19.20;45.00;;;;;;5094125;28;20198;-19
2021/12/21 00:07:14;;;;;;;2.87;2.23;;;19.20;45.00;;;;;;5095389;28;20224;-22
2021/12/21 00:09:40;;;;;;;2.90;2.60;;;19.20;45.00;;;;;;5094966;28;20181;-22
2021/12/21 00:12:06;;;;;;;2.43;2.23;;;19.10;45.00;;;;;;5114073;28;20197;-20
2021/12/21 00:17:11;;;;;;;2.50;2.30;;;19.00;45.10;;;;;;5114414;28;20205;-24
2021/12/21 00:20:28;;;;;;;3.33;2.67;;;18.90;45.10;;;;;;5096942;28;20293;-20
2021/12/21 00:25:10;;;;;;;3.53;2.83;;;18.80;45.30;;;;;;5113352;28;20219;-21
2021/12/21 00:27:35;;;;;;;3.20;2.33;;;18.80;45.30;;;;;;5094045;28;20541;-22
2021/12/21 00:30:01;;;;;;;2.63;2.43;;;18.70;45.40;;;;;;5112833;28;20183;-22
2021/12/21 00:32:28;;;;;;;3.50;2.33;;;18.70;45.40;;;;;;5112724;28;20649;-21
2021/12/21 00:34:54;;;;;;;3.60;2.43;;;18.60;45.50;;;;;;5095884;28;20238;-20
2021/12/21 00:37:22;;;;;;;3.17;2.60;;;18.50;45.50;;;;;;5096148;28;20244;-23
2021/12/21 00:39:48;;;;;;;3.20;2.50;;;18.40;45.60;;;;;;5096096;28;20200;-22
2021/12/21 00:42:13;;;;;;;2.80;2.43;;;18.30;45.60;;;;;;5095006;28;20196;-21
2021/12/21 00:44:40;;;;;;;3.20;2.50;;;18.30;45.70;;;;;;5096531;28;20187;-22
2021/12/21 00:47:06;;;;;;;2.60;2.40;;;18.20;45.80;;;;;;5113217;28;20224;-21
2021/12/21 00:49:32;;;;;;;3.43;2.43;;;18.10;45.90;;;;;;5094385;28;20184;-21
2021/12/21 00:51:58;;;;;;;3.37;2.50;;;18.00;46.00;;;;;;5094332;28;20496;-21
2021/12/21 00:54:24;;;;;;;2.50;2.23;;;18.00;46.10;;;;;;5111978;28;20255;-18
2021/12/21 00:56:50;;;;;;;3.23;2.60;;;18.00;46.10;;;;;;5113829;28;20188;-20
2021/12/21 00:59:15;;;;;;;2.60;2.40;;;17.90;46.20;;;;;;5094714;28;20461;-23
2021/12/21 01:01:42;;;;;;;2.70;2.43;;;17.80;46.20;;;;;;5113572;28;20187;-20
2021/12/21 01:04:18;;;;;;;3.10;2.70;;;17.80;46.30;;;;;;5115051;28;20187;-19
2021/12/21 01:06:57;;;;;;;2.80;2.50;;;17.90;46.30;;;;;;5116995;28;20222;-20
2021/12/21 01:09:57;;;;;;;2.83;2.57;;;18.10;46.10;;;;;;5116621;28;20584;-21
2021/12/21 01:12:24;;;;;;;2.87;2.30;;;18.20;45.90;;;;;;5114553;28;20208;-22
2021/12/21 01:17:47;;;;;;;2.70;2.40;;;18.10;45.80;;;;;;5116033;28;20268;-22
2021/12/21 01:20:28;;;;;;;2.80;2.23;;;18.10;45.80;;;;;;5117744;28;20709;-22
2021/12/21 01:28:50;;;;;;;2.70;2.33;;;18.00;45.90;;;;;;5033675;28;20478;-23
2021/12/21 01:36:22;;;;;;;2.93;2.20;;;17.80;46.10;;;;;;5114195;28;20181;-22
2021/12/21 01:39:12;;;;;;;3.10;2.40;;;17.80;46.20;;;;;;5098222;28;20192;-20
2021/12/21 01:49:36;;;;;;;2.67;2.20;;;17.70;46.30;;;;;;5116177;28;20529;-24
2021/12/21 01:52:07;;;;;;;3.17;2.43;;;17.90;46.00;;;;;;5097979;28;20500;-21
2021/12/21 01:54:33;;;;;;;4.17;2.70;;;17.90;45.80;;;;;;5097593;28;20290;-22
2021/12/21 01:56:59;;;;;;;2.87;2.50;;;17.90;45.80;;;;;;5113593;28;20352;-20
2021/12/21 01:59:24;;;;;;;3.27;2.57;;;17.90;45.80;;;;;;5114969;28;20190;-21
2021/12/21 02:01:50;;;;;;;2.80;2.40;;;17.90;45.90;;;;;;5114726;28;20268;-22
2021/12/21 02:04:17;;;;;;;2.80;2.40;;;17.80;45.80;;;;;;5116134;28;20629;-22
2021/12/21 02:06:44;;;;;;;2.80;2.30;;;17.80;45.90;;;;;;5098436;28;20301;-21
2021/12/21 02:09:10;;;;;;;3.20;2.43;;;17.80;45.90;;;;;;5116289;28;20259;-21
2021/12/21 02:11:36;;;;;;;2.67;2.40;;;17.70;46.00;;;;;;5115986;28;20352;-23
2021/12/21 02:14:05;;;;;;;2.93;2.50;;;17.60;46.00;;;;;;5097855;28;20576;-22
2021/12/21 02:17:37;;;;;;;2.50;2.10;;;17.60;46.10;;;;;;5114607;28;20724;-20
2021/12/21 02:19:30;;;;;;;2.50;2.27;;;17.60;46.10;;;;;;5102587;28;20206;-22
2021/12/21 02:22:06;;;;;;;2.87;2.47;;;17.60;46.50;;;;;;5096770;28;20210;-23
2021/12/21 02:24:41;;;;;;;3.00;2.37;;;17.50;46.10;;;;;;5096300;28;20197;-21
2021/12/21 02:27:18;;;;;;;4.23;2.17;;;17.50;46.10;;;;;;5115224;28;20205;-20
2021/12/21 02:29:44;;;;;;;2.60;2.33;;;17.60;46.00;;;;;;5115558;28;20456;-22
2021/12/21 02:32:12;;;;;;;2.83;2.30;;;17.80;45.80;;;;;;5096835;28;20618;-22
2021/12/21 02:34:38;;;;;;;2.67;2.30;;;17.90;45.70;;;;;;5116305;28;20484;-19
2021/12/21 02:37:04;;;;;;;4.27;2.50;;;17.80;45.70;;;;;;5115785;28;20190;-24
2021/12/21 02:39:30;;;;;;;3.60;2.57;;;17.80;45.70;;;;;;5115022;28;20186;-20
2021/12/21 02:41:56;;;;;;;2.53;2.33;;;17.80;45.70;;;;;;5114972;28;20190;-18
2021/12/21 02:44:22;;;;;;;2.60;2.40;;;17.70;45.70;;;;;;5096830;28;20191;-20
2021/12/21 02:46:49;;;;;;;3.10;2.30;;;17.60;45.70;;;;;;5113274;28;20229;-18
2021/12/21 02:49:15;;;;;;;3.20;2.20;;;17.60;45.80;;;;;;5097317;28;20196;-20
2021/12/21 02:51:43;;;;;;;2.50;2.20;;;17.60;45.90;;;;;;5115209;28;20228;-20
2021/12/21 02:54:09;;;;;;;2.30;2.10;;;17.50;45.90;;;;;;5114147;28;20191;-22
2021/12/21 02:56:36;;;;;;;2.57;2.30;;;17.50;45.90;;;;;;5096584;28;20202;-18
2021/12/21 02:59:01;;;;;;;2.30;2.10;;;17.50;45.90;;;;;;5114545;28;20205;-22
2021/12/21 03:01:28;;;;;;;2.93;2.27;;;17.40;45.90;;;;;;5097171;28;20194;-22
2021/12/21 03:03:54;;;;;;;2.70;2.10;;;17.40;45.90;;;;;;5113838;28;20188;-21
2021/12/21 03:07:23;;;;;;;2.40;2.20;;;17.40;45.90;;;;;;5113104;28;20211;-19
2021/12/21 03:09:55;;;;;;;2.57;2.17;;;17.60;45.90;;;;;;5104685;28;20206;-19
2021/12/21 03:12:11;;;;;;;3.77;2.77;;;17.70;45.60;;;;;;5106237;28;20223;-19
2021/12/21 03:14:38;;;;;;;3.77;2.40;;;17.80;45.50;;;;;;5096976;28;20281;-22
2021/12/21 03:17:05;;;;;;;2.83;2.30;;;17.70;45.50;;;;;;5115252;28;20186;-24
2021/12/21 03:19:31;;;;;;;2.77;2.40;;;17.60;45.50;;;;;;5115057;28;20204;-21
2021/12/21 03:28:03;;;;;;;2.87;2.27;;;17.50;45.60;;;;;;5111658;28;20270;-21
2021/12/21 03:30:29;;;;;;;4.10;2.03;;;17.50;45.70;;;;;;5113207;28;20209;-21
2021/12/21 03:36:33;;;;;;;2.33;2.13;;;17.30;45.80;;;;;;5115515;28;20213;-21
2021/12/21 03:39:07;;;;;;;2.90;2.37;;;17.20;45.80;;;;;;5114571;28;20181;-20
2021/12/21 03:41:36;;;;;;;2.93;2.30;;;17.30;45.90;;;;;;5114404;28;20190;-20
2021/12/21 03:44:03;;;;;;;2.40;2.20;;;17.20;45.80;;;;;;5114202;28;20554;-21
2021/12/21 03:46:31;;;;;;;3.10;2.50;;;17.20;46.30;;;;;;5097022;28;20256;-19
2021/12/21 03:48:58;;;;;;;2.60;2.37;;;17.20;45.80;;;;;;5095580;28;20198;-21
2021/12/21 03:51:24;;;;;;;2.80;2.47;;;17.20;45.80;;;;;;5113912;28;20222;-19
2021/12/21 03:53:50;;;;;;;3.03;2.17;;;17.20;45.80;;;;;;5113225;28;20244;-20
2021/12/21 03:58:46;;;;;;;2.80;2.50;;;17.00;45.90;;;;;;5114572;28;20207;-23
2021/12/21 04:04:34;;;;;;;2.87;2.23;;;16.90;46.00;;;;;;5114344;28;20655;-19
2021/12/21 04:07:00;;;;;;;2.87;2.37;;;16.90;45.90;;;;;;5095559;28;20221;-22
2021/12/21 04:09:26;;;;;;;3.50;2.40;;;16.90;45.90;;;;;;5114383;28;20214;-22
2021/12/21 04:15:16;;;;;;;2.50;2.30;;;20.50;42.80;;;;;;5112612;28;20277;-19
2021/12/21 04:17:41;;;;;;;2.77;2.20;;;20.90;41.50;;;;;;5113248;28;20278;-19
2021/12/21 04:20:08;;;;;;;2.50;2.30;;;20.90;41.30;;;;;;5095345;28;20291;-20
2021/12/21 04:22:33;;;;;;;2.90;2.50;;;21.30;41.00;;;;;;5113746;28;20266;-19
2021/12/21 04:24:59;;;;;;;2.60;2.37;;;21.30;40.80;;;;;;5096194;28;20596;-21
2021/12/21 04:27:25;;;;;;;2.77;2.00;;;21.70;40.60;;;;;;5094797;28;20432;-21
2021/12/21 04:29:50;;;;;;;2.63;2.30;;;22.00;40.20;;;;;;5113312;28;20452;-22
2021/12/21 04:39:03;;;;;;;2.70;2.40;;;23.50;38.80;;;;;;5114248;28;20272;-20
2021/12/21 04:41:32;;;;;;;3.23;2.33;;;24.00;38.30;;;;;;5098818;28;20207;-21
2021/12/21 04:43:59;;;;;;;2.60;2.30;;;24.40;38.00;;;;;;5099331;28;20596;-21
2021/12/21 04:49:46;;;;;;;2.53;2.33;;;25.20;37.20;;;;;;5117347;28;20211;-22
2021/12/21 04:52:12;;;;;;;2.70;2.27;;;25.70;36.90;;;;;;5116919;28;20200;-21
2021/12/21 05:06:50;;;;;;;2.60;2.20;;;26.60;36.20;;;;;;5116857;28;20213;-19
2021/12/21 05:09:24;;;;;;;2.80;2.50;;;26.50;36.10;;;;;;5098694;28;20190;-24
2021/12/21 05:12:30;;;;;;;2.47;2.17;;;26.40;36.20;;;;;;5116859;28;20247;-21
2021/12/21 05:18:19;;;;;;;2.80;2.40;;;26.90;36.00;;;;;;5113813;28;20217;-21
2021/12/21 05:24:07;;;;;;;3.30;2.63;;;27.00;35.70;;;;;;5116365;28;20501;-22
2021/12/21 05:26:33;;;;;;;3.00;2.57;;;26.80;35.80;;;;;;5115156;28;20205;-21
2021/12/21 05:28:58;;;;;;;3.03;2.43;;;26.50;35.90;;;;;;5114660;28;20570;-21
2021/12/21 05:31:24;;;;;;;2.43;2.23;;;26.20;36.10;;;;;;5115776;28;20262;-19
2021/12/21 05:33:51;;;;;;;2.57;2.27;;;25.70;36.30;;;;;;5115101;28;20176;-21
2021/12/21 05:40:09;;;;;;;2.60;2.40;;;24.70;37.10;;;;;;5113751;28;20240;-22
2021/12/21 05:45:56;;;;;;;2.77;2.33;;;23.40;38.10;;;;;;5115342;28;20212;-21
2021/12/21 05:48:22;;;;;;;2.73;2.50;;;22.90;38.70;;;;;;5114652;28;20455;-24
2021/12/21 05:50:48;;;;;;;2.50;2.30;;;22.50;39.10;;;;;;5114205;28;20592;-22
2021/12/21 05:56:35;;;;;;;2.63;2.30;;;21.50;39.90;;;;;;5112786;28;20227;-23
2021/12/21 06:03:08;;;;;;;2.93;2.40;;;21.80;40.00;;;;;;5114895;28;20504;-23
2021/12/21 06:05:52;;;;;;;2.60;2.33;;;23.00;39.20;;;;;;5095561;28;20363;-20
2021/12/21 06:08:51;;;;;;;2.63;2.30;;;24.50;38.00;;;;;;5095466;28;20267;-21
2021/12/21 06:11:41;;;;;;;5.37;2.50;;;25.70;37.10;;;;;;5095193;28;20224;-22
2021/12/21 06:53:48;;;;;;;3.30;2.80;;;23.30;38.80;;;;;;5065838;28;20208;-19
2021/12/21 06:56:17;;;;;;;2.67;2.37;;;23.00;39.20;;;;;;5092287;28;20189;-20
2021/12/21 06:58:43;;;;;;;3.20;2.87;;;22.60;39.50;;;;;;5093203;28;20296;-19
2021/12/21 07:01:15;;;;;;;4.93;2.80;;;22.30;40.20;;;;;;5112233;28;20276;-21
2021/12/21 07:07:03;;;;;;;3.47;2.83;;;22.30;40.00;;;;;;5111908;28;20422;-22
2021/12/21 07:24:47;;;;;;;5.53;3.30;;;25.90;37.10;;;;;;5110884;28;20258;-24
2021/12/21 07:27:13;;;;;;;5.53;3.07;;;26.30;36.80;;;;;;5093873;28;20216;-22
2021/12/21 07:29:39;;;;;;;6.43;3.17;;;26.40;36.70;;;;;;5110659;28;20190;-21
2021/12/21 07:32:05;;;;;;;4.57;2.70;;;26.40;36.70;;;;;;5093166;28;20198;-20
2021/12/21 07:34:30;;;;;;;4.00;3.10;;;26.40;36.70;;;;;;5110146;28;20520;-21
2021/12/21 07:47:02;;;;;;;5.00;3.40;;;25.60;37.00;;;;;;5109507;28;20283;-21
2021/12/21 07:49:28;;;;;;;5.13;3.10;;;25.10;37.30;;;;;;5109588;28;20193;-22
2021/12/21 07:51:54;;;;;;;5.33;3.40;;;24.70;37.60;;;;;;5091142;28;20221;-22
2021/12/21 07:54:20;;;;;;;3.63;3.03;;;24.30;37.90;;;;;;5110292;28;20186;-24
2021/12/21 07:56:45;;;;;;;5.53;3.43;;;23.90;38.30;;;;;;5109419;28;20371;-21
2021/12/21 07:59:12;;;;;;;4.70;3.47;;;23.50;38.60;;;;;;5110981;28;20189;-19
2021/12/21 08:01:39;;;;;;;6.80;3.30;;;23.10;39.00;;;;;;5109644;28;20288;-21
2021/12/21 08:04:07;;;;;;;6.20;3.23;;;22.70;39.30;;;;;;5109789;28;20284;-22
2021/12/21 08:06:34;;;;;;;3.80;2.90;;;22.40;39.70;;;;;;5108806;28;20217;-23
2021/12/21 08:09:02;;;;;;;5.63;3.30;;;22.10;39.90;;;;;;5089861;28;20211;-19
2021/12/21 08:12:11;;;;;;;4.43;3.20;;;22.00;40.00;;;;;;5108622;28;20445;-20
2021/12/21 08:14:14;;;;;;;4.90;3.40;;;22.20;40.00;;;;;;5109918;28;20265;-20
2021/12/21 08:16:40;;;;;;;3.33;3.03;;;22.60;39.70;;;;;;5112560;28;20300;-21
2021/12/21 08:19:05;;;;;;;8.63;3.60;;;23.10;39.30;;;;;;5094935;28;20198;-20
2021/12/21 08:21:31;;;;;;;3.97;3.03;;;23.80;38.80;;;;;;5112056;28;20524;-21
2021/12/21 08:23:58;;;;;;;5.17;3.40;;;24.50;38.10;;;;;;5112315;28;20680;-19
2021/12/21 08:26:24;;;;;;;4.20;3.37;;;24.90;37.60;;;;;;5111357;28;20225;-20
2021/12/21 08:28:50;;;;;;;4.07;3.30;;;25.30;37.30;;;;;;5112154;28;20201;-22
2021/12/21 08:31:16;;;;;;;4.03;2.97;;;25.70;37.00;;;;;;5111396;28;20219;-22
2021/12/21 08:33:43;;;;;;;4.77;3.27;;;26.00;36.80;;;;;;5111844;28;20200;-21
2021/12/21 08:36:10;;;;;;;4.03;2.90;;;26.40;36.50;;;;;;5094867;28;20478;-23
2021/12/21 08:38:38;;;;;;;3.90;2.80;;;26.60;36.30;;;;;;5093849;28;20271;-22
2021/12/21 08:41:04;;;;;;;4.00;3.10;;;26.60;36.10;;;;;;5094484;28;20712;-20
2021/12/21 08:43:32;;;;;;;4.63;3.23;;;26.50;36.20;;;;;;5113233;28;20581;-23
2021/12/21 08:45:59;;;;;;;3.90;3.10;;;26.40;36.10;;;;;;5112142;28;20177;-22
2021/12/21 08:48:25;;;;;;;3.93;3.07;;;26.30;36.30;;;;;;5112098;28;20216;-23
2021/12/21 08:50:54;;;;;;;3.60;3.03;;;26.10;36.40;;;;;;5112407;28;20193;-21
2021/12/21 08:53:21;;;;;;;4.30;3.33;;;25.70;36.50;;;;;;5111955;28;20289;-22
2021/12/21 08:55:46;;;;;;;3.57;3.13;;;25.30;36.90;;;;;;5111930;28;20262;-22
2021/12/21 08:58:13;;;;;;;3.33;3.00;;;24.90;37.10;;;;;;5112276;28;20462;-22
2021/12/21 09:00:43;;;;;;;3.87;3.20;;;24.50;37.90;;;;;;5111540;28;20217;-20
2021/12/21 09:03:11;;;;;;;3.67;3.10;;;24.10;37.80;;;;;;5110594;28;20186;-22
2021/12/21 09:05:37;;;;;;;3.37;3.03;;;23.70;38.20;;;;;;5110267;28;20195;-20
2021/12/21 09:08:04;;;;;;;4.10;3.27;;;23.20;38.50;;;;;;5111888;28;20448;-22
2021/12/21 09:10:30;;;;;;;3.40;3.10;;;23.00;38.90;;;;;;5112135;28;20296;-21
2021/12/21 09:12:57;;;;;;;3.37;2.70;;;22.90;39.10;;;;;;5110921;28;20262;-20
2021/12/21 09:15:24;;;;;;;4.37;3.13;;;23.00;39.10;;;;;;5110950;28;20202;-24
2021/12/21 09:17:51;;;;;;;4.07;3.03;;;23.20;38.90;;;;;;5093371;28;20214;-24
2021/12/21 09:20:19;;;;;;;3.70;3.37;;;23.60;38.60;;;;;;5092340;28;20202;-21
2021/12/21 09:22:47;;;;;;;4.60;2.93;;;24.30;38.10;;;;;;5111174;28;20209;-26
2021/12/21 09:25:13;;;;;;;3.33;3.00;;;25.10;37.40;;;;;;5091831;28;20202;-22
2021/12/21 09:27:39;;;;;;;3.57;3.20;;;25.90;36.80;;;;;;5092077;28;20228;-25
2021/12/21 09:30:07;;;;;;;3.17;2.87;;;26.70;36.30;;;;;;5110056;28;20365;-22
2021/12/21 09:32:33;;;;;;;3.17;2.87;;;27.10;36.20;;;;;;5110393;28;20414;-24
2021/12/21 09:34:59;;;;;;;3.50;3.20;;;27.40;35.70;;;;;;5110084;28;20284;-23
2021/12/21 09:37:25;;;;;;;4.70;4.30;;;27.30;35.60;;;;;;5111043;28;20208;-24
2021/12/21 09:39:53;;;;;;;4.47;3.30;;;27.40;35.60;;;;;;5092237;28;20504;-23
2021/12/21 09:42:25;;;;;;;4.07;3.00;;;27.40;35.50;;;;;;5109612;28;20204;-21
2021/12/21 09:44:51;;;;;;;7.07;3.40;;;27.30;35.40;;;;;;5109360;28;20186;-23
2021/12/21 09:47:17;;;;;;;4.67;3.20;;;27.20;35.50;;;;;;5108627;28;20336;-22
2021/12/21 09:49:44;;;;;;;3.30;2.97;;;26.90;35.70;;;;;;5109904;28;20205;-28
2021/12/21 09:52:12;;;;;;;3.30;3.00;;;26.50;35.90;;;;;;5109720;28;20765;-23
2021/12/21 09:54:39;;;;;;;3.50;3.20;;;26.10;36.10;;;;;;5110094;28;20190;-22
2021/12/21 09:57:06;;;;;;;3.40;3.10;;;25.70;36.40;;;;;;5092957;28;20513;-23
2021/12/21 10:00:37;;;;;;;4.50;3.23;;;25.40;36.70;;;;;;5111737;28;20209;-22
2021/12/21 10:03:05;;;;;;;4.20;3.20;;;24.90;37.00;;;;;;5113770;28;20186;-22
2021/12/21 10:05:35;;;;;;;4.07;3.33;;;24.50;37.40;;;;;;5111981;28;20201;-23
2021/12/21 10:08:08;;;;;;;3.70;3.20;;;24.10;37.80;;;;;;5109775;28;20510;-22
2021/12/21 10:10:45;;;;;;;3.53;3.10;;;23.80;38.10;;;;;;5109470;28;20236;-24
2021/12/21 10:13:15;;;;;;;3.63;3.10;;;23.40;38.50;;;;;;5086825;28;20509;-23
2021/12/21 10:15:47;;;;;;;3.27;2.93;;;23.20;38.70;;;;;;5110334;28;20193;-23
2021/12/21 10:18:14;;;;;;;4.00;3.23;;;23.10;38.80;;;;;;5091708;28;20207;-22
2021/12/21 10:20:43;;;;;;;4.20;3.10;;;23.20;38.90;;;;;;5110631;28;20436;-22
2021/12/21 10:23:25;;;;;;;4.17;3.40;;;23.40;38.70;;;;;;5091427;28;20196;-22
2021/12/21 10:25:56;;;;;;;4.10;3.33;;;23.80;38.40;;;;;;5091287;28;20596;-22
2021/12/21 10:29:01;;;;;;;4.30;3.30;;;24.30;38.00;;;;;;5107884;28;20194;-22
2021/12/21 10:31:40;;;;;;;4.20;3.10;;;24.90;37.50;;;;;;5110626;28;20217;-24
2021/12/21 10:34:10;;;;;;;4.43;2.97;;;25.70;37.00;;;;;;5110060;28;20346;-22
2021/12/21 10:36:50;;;;;;;3.67;3.13;;;26.30;36.60;;;;;;5109110;28;20478;-20
2021/12/21 10:39:20;;;;;;;3.63;3.07;;;26.80;36.30;;;;;;5110201;28;20223;-22
2021/12/21 10:41:47;;;;;;;3.40;3.10;;;26.90;36.20;;;;;;5109186;28;20636;-23
2021/12/21 10:44:15;;;;;;;5.43;3.03;;;27.00;36.10;;;;;;5108344;28;20762;-23
2021/12/21 10:46:47;;;;;;;4.07;3.50;;;27.00;36.00;;;;;;5109155;28;20450;-22
2021/12/21 10:49:18;;;;;;;4.37;3.23;;;27.00;36.10;;;;;;5089668;28;20197;-23
2021/12/21 10:51:56;;;;;;;5.10;3.20;;;26.80;36.10;;;;;;5090479;28;20194;-21
2021/12/21 10:54:39;;;;;;;4.10;3.30;;;26.60;36.20;;;;;;5106986;28;20787;-23
2021/12/21 10:57:33;;;;;;;3.93;3.50;;;26.50;36.30;;;;;;5108619;28;20279;-23
2021/12/21 11:00:17;;;;;;;5.00;3.30;;;26.10;36.50;;;;;;5107221;28;20328;-22
2021/12/21 11:02:44;;;;;;;4.90;3.27;;;25.90;36.70;;;;;;5109215;28;20754;-22
2021/12/21 11:05:20;;;;;;;4.40;3.60;;;25.60;36.80;;;;;;5107704;28;20742;-22
2021/12/21 11:07:55;;;;;;;5.43;3.30;;;25.30;37.10;;;;;;5106294;28;20303;-21
2021/12/21 11:10:30;;;;;;;3.77;3.27;;;24.90;37.40;;;;;;5107905;28;20375;-22
2021/12/21 11:13:22;;;;;;;5.67;3.53;;;24.50;37.80;;;;;;5088981;28;20566;-22
2021/12/21 11:15:55;;;;;;;4.17;3.67;;;24.20;38.10;;;;;;5102533;28;20234;-23
2021/12/21 11:18:24;;;;;;;6.90;3.73;;;23.90;38.30;;;;;;5108609;28;20193;-24
2021/12/21 11:20:54;;;;;;;4.17;3.57;;;23.70;38.50;;;;;;5109611;28;20286;-21
2021/12/21 11:23:22;;;;;;;6.67;3.53;;;23.50;38.70;;;;;;5107859;28;20250;-22
2021/12/21 11:25:53;;;;;;;5.57;3.33;;;23.30;38.80;;;;;;5089221;28;20193;-22
2021/12/21 11:28:29;;;;;;;5.83;3.43;;;23.30;38.80;;;;;;5106346;28;20194;-23
2021/12/21 11:30:59;;;;;;;6.67;3.80;;;23.40;39.10;;;;;;5108213;28;20671;-21
2021/12/21 11:33:27;;;;;;;4.67;3.63;;;23.70;38.50;;;;;;5106893;28;20193;-23
2021/12/21 11:38:38;;;;;;;6.10;3.57;;;24.20;38.00;;;;;;5108929;28;20205;-23
2021/12/21 11:41:05;;;;;;;5.43;3.60;;;24.60;37.50;;;;;;5107664;28;20174;-23
2021/12/21 11:43:40;;;;;;;5.60;4.03;;;24.90;37.20;;;;;;5107899;28;20247;-21
2021/12/21 11:46:11;;;;;;;4.87;3.93;;;25.20;36.90;;;;;;5088557;28;20468;-21
2021/12/21 11:49:23;;;;;;;5.37;4.10;;;25.60;36.60;;;;;;5105776;28;20443;-26
2021/12/21 11:51:49;;;;;;;5.07;3.73;;;25.90;36.30;;;;;;5101429;28;20192;-21
2021/12/21 11:54:19;;;;;;;4.83;3.63;;;26.10;36.10;;;;;;5107656;28;20196;-20
2021/12/21 11:56:45;;;;;;;5.63;3.93;;;26.20;36.00;;;;;;5072971;28;20204;-23
2021/12/21 11:59:11;;;;;;;6.53;4.27;;;26.10;35.90;;;;;;5107013;28;20184;-22
2021/12/21 12:01:45;;;;;;;4.37;3.70;;;26.10;35.90;;;;;;5106539;28;20203;-22
2021/12/21 12:04:12;;;;;;;4.93;3.70;;;26.20;35.80;;;;;;5106650;28;20181;-21
2021/12/21 12:06:51;;;;;;;5.10;3.90;;;26.10;35.70;;;;;;5089641;28;20530;-22
2021/12/21 12:09:34;;;;;;;7.60;4.10;;;25.90;35.80;;;;;;5107619;28;20611;-22
2021/12/21 12:12:12;;;;;;;5.97;4.10;;;25.60;36.00;;;;;;5089596;28;20251;-21
2021/12/21 12:14:39;;;;;;;4.87;3.53;;;25.40;36.20;;;;;;5104525;28;20282;-21
2021/12/21 12:17:16;;;;;;;5.03;3.90;;;25.20;36.30;;;;;;5089540;28;20553;-21
2021/12/21 12:19:49;;;;;;;6.23;3.80;;;24.90;36.50;;;;;;5105495;28;20246;-23
2021/12/21 12:22:15;;;;;;;5.90;4.43;;;24.60;36.60;;;;;;5105952;28;20228;-23
2021/12/21 12:24:42;;;;;;;6.47;4.00;;;24.50;36.90;;;;;;5087564;28;20302;-22
2021/12/21 12:27:16;;;;;;;4.37;3.60;;;24.20;37.00;;;;;;5086765;28;20308;-22
2021/12/21 12:30:13;;;;;;;4.13;3.60;;;23.90;37.20;;;;;;5106869;28;20198;-23
2021/12/21 12:32:47;;;;;;;6.90;4.07;;;23.50;37.50;;;;;;5086708;28;20191;-23
2021/12/21 12:35:21;;;;;;;6.27;3.77;;;23.10;37.80;;;;;;5106819;28;20496;-24
2021/12/21 12:37:57;;;;;;;5.87;3.97;;;22.70;38.10;;;;;;5106638;28;20219;-22
2021/12/21 12:40:43;;;;;;;5.27;4.00;;;22.40;38.50;;;;;;5093533;28;20442;-22
2021/12/21 12:43:10;;;;;;;5.63;4.07;;;22.10;38.80;;;;;;5086377;28;20614;-22
2021/12/21 12:45:51;;;;;;;3.93;3.53;;;22.00;39.00;;;;;;5069734;28;20392;-20
2021/12/21 12:48:47;;;;;;;4.33;3.70;;;22.30;38.90;;;;;;5068598;28;20241;-21
2021/12/21 12:51:38;;;;;;;4.43;3.60;;;22.90;38.40;;;;;;5086176;28;20299;-19
2021/12/21 12:54:16;;;;;;;5.60;3.97;;;23.50;37.90;;;;;;5086565;28;20187;-24
2021/12/21 12:56:42;;;;;;;5.83;3.83;;;24.30;37.20;;;;;;5069735;28;20639;-22
2021/12/21 12:59:08;;;;;;;5.57;3.80;;;25.20;36.60;;;;;;5086778;28;20718;-21
2021/12/21 13:01:41;;;;;;;5.13;3.43;;;25.70;36.00;;;;;;5088988;28;20202;-23
2021/12/21 13:04:11;;;;;;;5.67;4.10;;;26.10;35.70;;;;;;5088718;28;20578;-22
2021/12/21 13:06:38;;;;;;;6.23;3.43;;;26.50;35.40;;;;;;5071210;28;20210;-26
2021/12/21 13:09:06;;;;;;;5.67;3.70;;;26.80;35.20;;;;;;5070322;28;20199;-19
2021/12/21 13:11:35;;;;;;;9.40;3.97;;;26.70;35.00;;;;;;5089459;28;20196;-22
2021/12/21 13:14:01;;;;;;;4.93;3.80;;;26.70;35.20;;;;;;5072623;28;20587;-23
2021/12/21 13:16:29;;;;;;;4.73;3.60;;;26.50;35.20;;;;;;5090877;28;20194;-22
2021/12/21 13:19:16;;;;;;;4.80;3.70;;;26.50;35.30;;;;;;5073237;28;20194;-21
2021/12/21 13:22:01;;;;;;;5.83;3.60;;;26.50;35.20;;;;;;5071392;28;20353;-21
2021/12/21 13:24:33;;;;;;;5.00;3.60;;;26.50;35.30;;;;;;5088567;28;20273;-25
2021/12/21 13:27:03;;;;;;;3.87;3.47;;;26.30;35.40;;;;;;5071225;28;20221;-24
2021/12/21 13:29:35;;;;;;;5.57;3.53;;;26.10;35.40;;;;;;5088815;28;20367;-23
2021/12/21 13:32:08;;;;;;;5.27;3.80;;;25.90;35.70;;;;;;5071757;28;20192;-24
2021/12/21 13:34:36;;;;;;;4.07;3.40;;;25.60;35.90;;;;;;5070428;28;20191;-23
2021/12/21 13:37:06;;;;;;;4.90;3.73;;;25.20;36.10;;;;;;5072077;28;20261;-24
2021/12/21 13:39:41;;;;;;;5.63;3.33;;;25.00;36.70;;;;;;5088594;28;20298;-22
2021/12/21 13:42:19;;;;;;;4.63;3.70;;;24.60;36.60;;;;;;5071356;28;20238;-21
2021/12/21 13:44:52;;;;;;;5.10;3.50;;;24.30;36.90;;;;;;5071436;28;20195;-21
2021/12/21 13:47:20;;;;;;;5.73;3.97;;;23.90;37.20;;;;;;5075396;28;20249;-24
2021/12/21 13:50:01;;;;;;;5.97;3.93;;;23.50;37.50;;;;;;5105553;28;20198;-23
2021/12/21 13:52:30;;;;;;;4.13;3.47;;;23.20;37.80;;;;;;5104742;28;20217;-22
2021/12/21 13:54:56;;;;;;;6.27;3.60;;;23.00;38.10;;;;;;5082377;28;20186;-25
2021/12/21 13:57:23;;;;;;;4.97;3.63;;;22.80;38.30;;;;;;5087504;28;20190;-25
2021/12/21 13:59:55;;;;;;;5.10;3.60;;;22.70;38.50;;;;;;5082242;28;20264;-21
2021/12/21 14:02:34;;;;;;;5.53;3.60;;;22.70;38.50;;;;;;5095573;28;20583;-23
2021/12/21 14:05:54;;;;;;;4.40;3.43;;;22.80;38.40;;;;;;5075754;28;20208;-23
2021/12/21 14:08:21;;;;;;;3.93;3.23;;;23.10;38.20;;;;;;5021136;28;20231;-22
2021/12/21 14:10:53;;;;;;;4.37;3.40;;;23.70;37.80;;;;;;5049052;28;20248;-22
2021/12/21 14:13:54;;;;;;;5.17;3.67;;;24.40;37.30;;;;;;5032342;28;20202;-23
2021/12/21 14:16:31;;;;;;;5.40;3.30;;;25.20;36.70;;;;;;5047731;28;20647;-22
2021/12/21 14:26:46;;;;;;;4.43;3.43;;;25.90;36.10;;;;;;5047824;28;20213;-22
2021/12/21 14:32:53;;;;;;;4.40;3.77;;;25.90;36.00;;;;;;5050740;28;20706;-22
2021/12/21 14:35:36;;;;;;;5.07;3.80;;;25.90;36.10;;;;;;5008872;28;20641;-25
2021/12/21 14:38:16;;;;;;;5.33;3.50;;;25.80;36.10;;;;;;5008728;28;20197;-22
2021/12/21 14:40:50;;;;;;;7.20;4.07;;;25.70;36.20;;;;;;4994559;28;20292;-21
2021/12/21 14:43:23;;;;;;;5.10;3.87;;;25.50;36.30;;;;;;4994141;28;20225;-22
2021/12/21 14:49:50;;;;;;;5.17;3.50;;;25.00;36.50;;;;;;5010231;28;20216;-21
2021/12/21 14:53:11;;;;;;;4.63;3.80;;;24.50;36.90;;;;;;4989448;28;20285;-26
2021/12/21 14:59:34;;;;;;;5.90;4.10;;;23.80;37.60;;;;;;5013913;28;20215;-23
2021/12/21 15:02:05;;;;;;;5.73;4.10;;;23.60;38.30;;;;;;5048691;28;20200;-21
2021/12/21 15:04:33;;;;;;;5.23;3.90;;;23.40;38.00;;;;;;5030352;28;20207;-23
2021/12/21 15:06:59;;;;;;;5.10;4.10;;;23.30;38.20;;;;;;5079708;28;20253;-22
2021/12/21 15:09:26;;;;;;;8.70;4.10;;;23.20;38.30;;;;;;5092737;28;20230;-23
2021/12/21 15:11:55;;;;;;;7.07;4.07;;;23.20;38.30;;;;;;5078192;28;20195;-23
2021/12/21 15:15:23;;;;;;;7.67;4.23;;;23.20;38.40;;;;;;5096518;28;20810;-23
2021/12/21 15:18:10;;;;;;;6.87;4.57;;;23.30;38.50;;;;;;5026586;28;20550;-22
2021/12/21 15:20:36;;;;;;;7.70;4.37;;;23.70;38.20;;;;;;5046929;28;20545;-21
2021/12/21 15:23:03;;;;;;;6.40;4.17;;;24.00;37.90;;;;;;5050778;28;20306;-22
2021/12/21 15:25:29;;;;;;;8.63;4.40;;;24.30;37.60;;;;;;5072646;28;20219;-20
2021/12/21 15:28:52;;;;;;;7.33;4.60;;;24.50;37.40;;;;;;5073451;28;20223;-23
2021/12/21 15:31:38;;;;;;;7.57;4.53;;;24.90;37.10;;;;;;5069004;28;20317;-22
2021/12/21 15:34:04;;;;;;;8.67;4.10;;;25.30;36.60;;;;;;5065359;28;20461;-20
2021/12/21 15:36:31;;;;;;;8.27;4.07;;;25.40;36.40;;;;;;5066641;28;20471;-24
2021/12/21 15:42:41;;;;;;;5.53;4.33;;;25.60;36.30;;;;;;5069250;28;20230;-22
2021/12/21 15:45:51;;;;;;;7.30;4.60;;;25.60;36.30;;;;;;5066969;28;20718;-22
2021/12/21 15:48:17;;;;;;;6.80;4.33;;;25.40;36.30;;;;;;5049729;28;20248;-23
2021/12/21 15:50:43;;;;;;;6.40;4.20;;;25.10;36.40;;;;;;5088998;28;20202;-24
2021/12/21 15:53:09;;;;;;;5.83;4.07;;;24.90;36.60;;;;;;5071811;28;20210;-21
2021/12/21 15:55:34;;;;;;;6.03;4.30;;;24.60;36.80;;;;;;5088037;28;20579;-21
2021/12/21 15:58:00;;;;;;;6.90;4.13;;;24.40;37.00;;;;;;5070621;28;20305;-25
2021/12/21 16:00:25;;;;;;;6.77;3.80;;;24.20;37.20;;;;;;5089152;28;20190;-21
2021/12/21 16:02:53;;;;;;;7.30;4.30;;;24.10;37.30;;;;;;5089761;28;20295;-20
2021/12/21 16:05:19;;;;;;;6.30;4.10;;;24.00;37.40;;;;;;5088598;28;20194;-21
2021/12/21 16:07:45;;;;;;;5.60;4.00;;;24.00;37.50;;;;;;5087786;28;20475;-24
2021/12/21 16:10:12;;;;;;;7.27;4.17;;;23.90;37.50;;;;;;5087258;28;20195;-22
2021/12/21 16:12:39;;;;;;;5.83;4.40;;;23.80;37.60;;;;;;5087747;28;20195;-22
2021/12/21 16:15:05;;;;;;;5.60;4.00;;;23.80;37.70;;;;;;5086583;28;20186;-20